createdAt,value
2018-04-20T00:01:18.841Z,30.48
2018-04-20T00:03:46.219Z,30.16
2018-04-20T00:06:13.609Z,30.48
2018-04-20T00:08:40.979Z,31.55
2018-04-20T00:11:08.363Z,31.23
2018-04-20T00:13:35.767Z,31.76
2018-04-20T00:16:03.151Z,32.26
2018-04-20T00:18:30.541Z,33.42
2018-04-20T00:20:57.914Z,32.43
2018-04-20T00:23:25.315Z,32.18
2018-04-20T00:25:52.735Z,32.02
2018-04-20T00:28:20.185Z,31.69
2018-04-20T00:30:47.591Z,31.87
2018-04-20T00:33:14.980Z,31.76
2018-04-20T00:35:42.350Z,31.65
2018-04-20T00:38:09.965Z,32.77
2018-04-20T00:40:37.346Z,32.46
2018-04-20T00:43:04.723Z,32.11
2018-04-20T00:45:32.093Z,31.62
2018-04-20T00:47:59.501Z,31.58
2018-04-20T00:50:26.866Z,31.97
2018-04-20T00:52:54.246Z,30.81
2018-04-20T00:55:21.630Z,31.19
2018-04-20T00:57:49.014Z,30.33
2018-04-20T01:00:16.390Z,30.33
2018-04-20T01:02:43.764Z,30.82
2018-04-20T01:05:11.720Z,30.48
2018-04-20T01:07:39.075Z,30.75
2018-04-20T01:10:06.466Z,30.49
2018-04-20T01:12:34.035Z,30.41
2018-04-20T01:15:01.423Z,30.16
2018-04-20T01:17:28.856Z,30.29
2018-04-20T01:19:56.260Z,30.47
2018-04-20T01:22:23.721Z,29.97
2018-04-20T01:24:51.134Z,30.51
2018-04-20T01:27:18.528Z,31.16
2018-04-20T01:29:45.898Z,30.88
2018-04-20T01:32:13.285Z,31.39
2018-04-20T01:34:41.465Z,31.58
2018-04-20T01:37:09.221Z,31.16
2018-04-20T01:39:36.618Z,31.49
2018-04-20T01:42:04.003Z,31.63
2018-04-20T01:44:31.384Z,32.19
2018-04-20T01:46:59.068Z,32.16
2018-04-20T01:49:26.453Z,32.08
2018-04-20T01:51:53.837Z,32.55
2018-04-20T01:54:21.216Z,32.56
2018-04-20T01:56:48.601Z,32.94
2018-04-20T01:59:15.978Z,33.14
2018-04-20T02:01:43.375Z,33.00
2018-04-20T02:04:10.749Z,33.15
2018-04-20T02:06:38.129Z,33.65
2018-04-20T02:09:06.403Z,33.03
2018-04-20T02:11:33.783Z,33.23
2018-04-20T02:14:01.168Z,33.42
2018-04-20T02:16:28.562Z,34.09
2018-04-20T02:18:55.954Z,34.02
2018-04-20T02:21:23.336Z,34.11
2018-04-20T02:23:50.713Z,34.94
2018-04-20T02:26:18.099Z,34.20
2018-04-20T02:28:45.482Z,34.41
2018-04-20T02:31:12.855Z,34.36
2018-04-20T02:33:40.242Z,34.31
2018-04-20T02:36:07.624Z,35.05
2018-04-20T02:38:35.008Z,34.88
2018-04-20T02:41:02.389Z,35.50
2018-04-20T02:43:29.771Z,35.21
2018-04-20T02:45:57.150Z,35.44
2018-04-20T02:48:24.544Z,35.92
2018-04-20T02:50:51.911Z,36.40
2018-04-20T02:53:19.290Z,37.13
2018-04-20T02:55:46.695Z,36.54
2018-04-20T02:58:14.066Z,36.55
2018-04-20T03:00:41.448Z,37.26
2018-04-20T03:03:08.823Z,36.36
2018-04-20T03:05:36.211Z,35.90
2018-04-20T03:08:03.584Z,35.75
2018-04-20T03:10:31.392Z,36.42
2018-04-20T03:12:58.741Z,36.80
2018-04-20T03:15:26.134Z,36.85
2018-04-20T03:17:54.372Z,37.62
2018-04-20T03:20:21.746Z,38.24
2018-04-20T03:22:49.121Z,37.45
2018-04-20T03:25:16.504Z,37.35
2018-04-20T03:27:43.879Z,38.34
2018-04-20T03:30:11.259Z,38.91
2018-04-20T03:32:38.635Z,39.79
2018-04-20T03:35:06.002Z,38.85
2018-04-20T03:37:33.377Z,38.13
2018-04-20T03:40:00.758Z,37.84
2018-04-20T03:42:28.148Z,37.62
2018-04-20T03:44:55.530Z,37.06
2018-04-20T03:47:22.923Z,37.52
2018-04-20T03:49:50.295Z,37.90
2018-04-20T03:52:17.691Z,38.19
2018-04-20T03:54:45.062Z,38.69
2018-04-20T03:57:12.447Z,38.52
2018-04-20T03:59:39.822Z,38.35
2018-04-20T04:02:07.223Z,38.36
2018-04-20T04:04:34.610Z,38.57
2018-04-20T04:07:01.996Z,39.25
2018-04-20T04:09:29.371Z,39.23
2018-04-20T04:11:56.762Z,39.97
2018-04-20T04:14:24.155Z,39.63
2018-04-20T04:17:03.172Z,38.67
2018-04-20T04:19:42.487Z,39.30
2018-04-20T04:22:21.724Z,38.46
2018-04-20T04:25:01.015Z,38.89
2018-04-20T04:27:41.132Z,39.42
2018-04-20T04:30:08.503Z,39.35
2018-04-20T04:32:35.896Z,40.30
2018-04-20T04:35:03.287Z,39.19
2018-04-20T04:37:30.680Z,39.62
2018-04-20T04:39:58.059Z,39.85
2018-04-20T04:42:25.451Z,40.84
2018-04-20T04:44:52.833Z,40.17
2018-04-20T04:47:20.202Z,40.45
2018-04-20T04:49:47.601Z,40.75
2018-04-20T04:52:14.986Z,39.81
2018-04-20T04:54:42.488Z,40.25
2018-04-20T04:57:09.863Z,39.87
2018-04-20T04:59:37.247Z,40.36
2018-04-20T05:02:04.618Z,40.35
2018-04-20T05:04:32.001Z,40.50
2018-04-20T05:06:59.380Z,40.90
2018-04-20T05:09:26.771Z,40.47
2018-04-20T05:11:54.146Z,40.24
2018-04-20T05:14:21.813Z,40.49
2018-04-20T05:16:49.193Z,40.49
2018-04-20T05:19:16.960Z,40.78
2018-04-20T05:21:44.339Z,40.37
2018-04-20T05:24:11.743Z,40.84
2018-04-20T05:26:39.114Z,40.66
2018-04-20T05:29:06.512Z,40.64
2018-04-20T05:31:33.896Z,40.46
2018-04-20T05:34:01.266Z,40.20
2018-04-20T05:36:28.641Z,40.17
2018-04-20T05:38:56.013Z,40.26
2018-04-20T05:41:23.403Z,40.06
2018-04-20T05:43:50.805Z,40.13
2018-04-20T05:46:18.186Z,40.56
2018-04-20T05:48:45.568Z,40.02
2018-04-20T05:51:12.951Z,40.12
2018-04-20T05:53:40.330Z,40.28
2018-04-20T05:56:07.714Z,40.63
2018-04-20T05:58:35.186Z,40.44
2018-04-20T06:01:02.639Z,40.22
2018-04-20T06:03:29.972Z,39.92
2018-04-20T06:05:57.356Z,40.49
2018-04-20T06:08:24.732Z,40.67
2018-04-20T06:10:52.127Z,40.29
2018-04-20T06:13:19.499Z,39.85
2018-04-20T06:15:46.900Z,39.73
2018-04-20T06:18:14.286Z,40.25
2018-04-20T06:20:41.673Z,39.80
2018-04-20T06:23:09.052Z,40.18
2018-04-20T06:25:36.442Z,40.24
2018-04-20T06:28:03.828Z,40.15
2018-04-20T06:30:31.211Z,40.88
2018-04-20T06:32:58.599Z,41.61
2018-04-20T06:35:25.981Z,42.27
2018-04-20T06:37:53.359Z,42.17
2018-04-20T06:40:20.739Z,41.45
2018-04-20T06:42:48.141Z,41.31
2018-04-20T06:45:15.524Z,41.31
2018-04-20T06:47:42.931Z,41.17
2018-04-20T06:50:10.307Z,41.17
2018-04-20T06:52:37.704Z,41.21
2018-04-20T06:55:05.087Z,41.08
2018-04-20T06:57:32.480Z,41.61
2018-04-20T06:59:59.865Z,41.22
2018-04-20T07:02:27.259Z,40.94
2018-04-20T07:04:54.634Z,39.97
2018-04-20T07:07:22.031Z,40.14
2018-04-20T07:09:49.409Z,40.08
2018-04-20T07:12:16.826Z,39.79
2018-04-20T07:14:44.191Z,40.16
2018-04-20T07:17:11.589Z,39.87
2018-04-20T07:19:38.979Z,39.97
2018-04-20T07:22:06.818Z,39.87
2018-04-20T07:24:34.209Z,39.92
2018-04-20T07:27:01.595Z,39.70
2018-04-20T07:29:28.978Z,39.47
2018-04-20T07:31:56.365Z,39.67
2018-04-20T07:34:23.750Z,39.52
2018-04-20T07:36:51.141Z,39.80
2018-04-20T07:39:18.520Z,40.07
2018-04-20T07:41:45.894Z,39.45
2018-04-20T07:44:13.287Z,39.45
2018-04-20T07:46:40.656Z,38.91
2018-04-20T07:49:08.055Z,39.32
2018-04-20T07:51:35.434Z,39.25
2018-04-20T07:54:02.818Z,39.13
2018-04-20T07:56:30.215Z,39.25
2018-04-20T07:58:57.591Z,39.42
2018-04-20T08:01:24.963Z,39.26
2018-04-20T08:03:52.395Z,39.14
2018-04-20T08:06:19.771Z,39.25
2018-04-20T08:08:47.173Z,39.17
2018-04-20T08:11:14.551Z,38.86
2018-04-20T08:13:41.953Z,38.94
2018-04-20T08:16:09.336Z,39.20
2018-04-20T08:18:36.719Z,39.27
2018-04-20T08:21:04.103Z,38.95
2018-04-20T08:23:31.501Z,39.03
2018-04-20T08:25:58.881Z,39.12
2018-04-20T08:28:26.410Z,39.07
2018-04-20T08:30:53.787Z,39.21
2018-04-20T08:33:21.171Z,39.77
2018-04-20T08:35:48.556Z,39.81
2018-04-20T08:38:15.935Z,39.62
2018-04-20T08:40:43.331Z,39.58
2018-04-20T08:43:10.702Z,39.56
2018-04-20T08:45:38.104Z,39.20
2018-04-20T08:48:05.484Z,38.96
2018-04-20T08:50:32.873Z,39.07
2018-04-20T08:53:00.245Z,38.94
2018-04-20T08:55:27.638Z,38.92
2018-04-20T08:57:55.023Z,39.00
2018-04-20T09:00:22.413Z,39.08
2018-04-20T09:02:49.795Z,39.16
2018-04-20T09:05:17.202Z,39.03
2018-04-20T09:07:44.581Z,39.04
2018-04-20T09:10:11.972Z,38.90
2018-04-20T09:12:39.359Z,38.60
2018-04-20T09:15:06.730Z,38.39
2018-04-20T09:17:34.126Z,37.90
2018-04-20T09:20:01.504Z,37.64
2018-04-20T09:22:28.896Z,37.62
2018-04-20T09:24:56.274Z,37.64
2018-04-20T09:27:23.675Z,37.40
2018-04-20T09:29:51.207Z,37.31
2018-04-20T09:32:18.609Z,37.04
2018-04-20T09:34:46.004Z,36.78
2018-04-20T09:37:13.406Z,37.12
2018-04-20T09:39:40.787Z,37.24
2018-04-20T09:42:08.189Z,37.28
2018-04-20T09:44:35.560Z,37.23
2018-04-20T09:47:02.960Z,37.02
2018-04-20T09:49:31.279Z,36.96
2018-04-20T09:51:58.693Z,36.14
2018-04-20T09:54:26.078Z,35.96
2018-04-20T09:56:53.449Z,35.68
2018-04-20T09:59:20.841Z,35.73
2018-04-20T10:01:48.229Z,35.06
2018-04-20T10:04:16.517Z,35.82
2018-04-20T10:06:43.894Z,35.71
2018-04-20T10:09:11.287Z,35.38
2018-04-20T10:11:38.673Z,35.39
2018-04-20T10:14:06.547Z,35.64
2018-04-20T10:16:33.933Z,35.23
2018-04-20T10:19:01.401Z,34.17
2018-04-20T10:21:28.777Z,34.77
2018-04-20T10:23:56.168Z,34.46
2018-04-20T10:26:23.550Z,34.63
2018-04-20T10:28:50.944Z,34.78
2018-04-20T10:31:18.340Z,33.74
2018-04-20T10:33:45.739Z,34.21
2018-04-20T10:36:13.120Z,32.63
2018-04-20T10:38:40.560Z,32.63
2018-04-20T10:41:07.954Z,32.71
2018-04-20T10:43:35.320Z,32.24
2018-04-20T10:46:02.722Z,32.76
2018-04-20T10:48:30.163Z,31.98
2018-04-20T10:50:57.500Z,32.42
2018-04-20T10:53:24.879Z,32.03
2018-04-20T10:55:52.266Z,31.23
2018-04-20T10:58:19.659Z,30.89
2018-04-20T11:00:47.050Z,30.17
2018-04-20T11:03:14.444Z,30.14
2018-04-20T11:05:41.842Z,30.32
2018-04-20T11:08:09.237Z,30.60
2018-04-20T11:10:36.622Z,30.03
2018-04-20T11:13:03.998Z,30.01
2018-04-20T11:15:31.410Z,30.52
2018-04-20T11:17:58.831Z,31.02
2018-04-20T11:20:26.220Z,29.99
2018-04-20T11:22:53.737Z,29.63
2018-04-20T11:25:21.141Z,28.90
2018-04-20T11:27:48.557Z,29.61
2018-04-20T11:30:15.924Z,28.05
2018-04-20T11:32:43.308Z,28.08
2018-04-20T11:35:10.698Z,27.90
2018-04-20T11:37:38.091Z,28.25
2018-04-20T11:40:05.467Z,28.56
2018-04-20T11:42:32.860Z,27.80
2018-04-20T11:45:00.236Z,27.32
2018-04-20T11:47:27.665Z,26.77
2018-04-20T11:49:55.217Z,28.13
2018-04-20T11:52:22.643Z,27.52
2018-04-20T11:54:50.040Z,27.81
2018-04-20T11:57:17.432Z,26.52
2018-04-20T11:59:44.820Z,26.08
2018-04-20T12:02:12.259Z,25.15
2018-04-20T12:04:39.593Z,25.54
2018-04-20T12:07:06.984Z,23.63
2018-04-20T12:09:34.380Z,24.72
2018-04-20T12:12:01.954Z,24.17
2018-04-20T12:14:29.345Z,23.90
2018-04-20T12:16:56.733Z,23.29
2018-04-20T12:19:24.128Z,23.11
2018-04-20T12:21:51.527Z,22.13
2018-04-20T12:24:18.908Z,20.69
2018-04-20T12:26:46.291Z,20.82
2018-04-20T12:29:13.696Z,20.36
2018-04-20T12:31:41.077Z,20.00
2018-04-20T12:34:08.469Z,18.79
2018-04-20T12:36:35.862Z,18.53
2018-04-20T12:39:03.290Z,17.78
2018-04-20T12:41:30.639Z,17.60
2018-04-20T12:43:58.042Z,17.11
2018-04-20T12:46:25.403Z,17.23
2018-04-20T12:48:52.797Z,17.25
2018-04-20T12:51:20.193Z,16.45
2018-04-20T12:53:47.597Z,15.52
2018-04-20T12:56:14.992Z,16.58
2018-04-20T12:58:42.364Z,16.11
2018-04-20T13:01:09.768Z,15.73
2018-04-20T13:03:37.160Z,15.13
2018-04-20T13:06:04.555Z,15.31
2018-04-20T13:08:31.938Z,14.77
2018-04-20T13:10:59.318Z,14.48
2018-04-20T13:13:26.703Z,14.33
2018-04-20T13:15:54.113Z,14.12
2018-04-20T13:18:21.498Z,14.63
2018-04-20T13:20:48.882Z,13.96
2018-04-20T13:23:16.247Z,14.52
2018-04-20T13:25:43.675Z,14.28
2018-04-20T13:28:11.663Z,14.45
2018-04-20T13:30:39.029Z,14.87
2018-04-20T13:33:06.410Z,13.93
2018-04-20T13:35:33.803Z,13.54
2018-04-20T13:38:01.192Z,14.17
2018-04-20T13:40:28.573Z,13.78
2018-04-20T13:42:55.954Z,13.60
2018-04-20T13:45:23.336Z,13.08
2018-04-20T13:47:50.717Z,13.18
2018-04-20T13:50:18.109Z,12.93
2018-04-20T13:52:45.490Z,12.73
2018-04-20T13:55:12.863Z,13.02
2018-04-20T13:57:40.257Z,13.15
2018-04-20T14:00:07.630Z,12.85
2018-04-20T14:02:35.016Z,13.25
2018-04-20T14:05:02.404Z,13.01
2018-04-20T14:07:29.773Z,13.00
2018-04-20T14:09:57.160Z,13.45
2018-04-20T14:12:24.544Z,12.83
2018-04-20T14:14:51.935Z,12.57
2018-04-20T14:17:19.308Z,13.19
2018-04-20T14:19:46.691Z,13.56
2018-04-20T14:22:14.067Z,14.28
2018-04-20T14:24:41.459Z,14.25
2018-04-20T14:27:08.829Z,14.56
2018-04-20T14:29:36.221Z,14.17
2018-04-20T14:32:03.605Z,14.24
2018-04-20T14:34:31.034Z,13.84
2018-04-20T14:36:58.363Z,13.56
2018-04-20T14:39:25.765Z,13.73
2018-04-20T14:41:53.140Z,14.01
2018-04-20T14:44:20.533Z,14.10
2018-04-20T14:46:47.904Z,13.97
2018-04-20T14:49:15.287Z,13.66
2018-04-20T14:51:42.661Z,14.06
2018-04-20T14:54:10.044Z,13.14
2018-04-20T14:56:37.456Z,13.14
2018-04-20T14:59:04.838Z,13.26
2018-04-20T15:01:32.219Z,13.84
2018-04-20T15:03:59.599Z,13.73
2018-04-20T15:06:26.986Z,13.60
2018-04-20T15:08:54.358Z,13.70
2018-04-20T15:11:21.742Z,13.36
2018-04-20T15:13:49.117Z,13.50
2018-04-20T15:16:16.510Z,13.82
2018-04-20T15:18:43.895Z,14.41
2018-04-20T15:21:11.296Z,14.22
2018-04-20T15:23:38.676Z,14.38
2018-04-20T15:26:06.062Z,14.29
2018-04-20T15:28:33.430Z,13.30
2018-04-20T15:31:00.832Z,13.30
2018-04-20T15:33:28.215Z,13.28
2018-04-20T15:35:55.587Z,13.62
2018-04-20T15:38:22.976Z,13.59
2018-04-20T15:40:50.360Z,13.22
2018-04-20T15:43:17.736Z,14.06
2018-04-20T15:45:45.125Z,13.77
2018-04-20T15:48:13.241Z,14.04
2018-04-20T15:50:40.617Z,13.42
2018-04-20T15:53:07.998Z,13.21
2018-04-20T15:55:35.379Z,13.22
2018-04-20T15:58:02.930Z,13.79
2018-04-20T16:00:30.309Z,13.98
2018-04-20T16:02:57.711Z,13.81
2018-04-20T16:05:25.086Z,13.93
2018-04-20T16:07:52.481Z,13.62
2018-04-20T16:10:19.858Z,14.81
2018-04-20T16:12:47.239Z,14.54
2018-04-20T16:15:14.636Z,14.73
2018-04-20T16:17:42.021Z,15.07
2018-04-20T16:20:09.408Z,15.00
2018-04-20T16:22:36.785Z,15.84
2018-04-20T16:25:04.220Z,15.62
2018-04-20T16:27:31.594Z,15.67
2018-04-20T16:29:58.974Z,15.76
2018-04-20T16:32:26.358Z,15.65
2018-04-20T16:34:53.742Z,15.66
2018-04-20T16:37:21.115Z,15.72
2018-04-20T16:39:48.497Z,16.29
2018-04-20T16:42:15.889Z,17.06
2018-04-20T16:44:43.280Z,18.40
2018-04-20T16:47:10.670Z,19.12
2018-04-20T16:49:38.067Z,19.73
2018-04-20T16:52:05.464Z,19.71
2018-04-20T16:54:32.837Z,19.55
2018-04-20T16:57:00.237Z,20.63
2018-04-20T16:59:27.627Z,20.68
2018-04-20T17:01:55.010Z,21.01
2018-04-20T17:04:22.392Z,21.11
2018-04-20T17:06:50.132Z,22.80
2018-04-20T17:09:17.529Z,24.41
2018-04-20T17:11:44.913Z,23.98
2018-04-20T17:14:13.042Z,22.03
2018-04-20T17:16:40.433Z,24.26
2018-04-20T17:19:07.834Z,23.23
2018-04-20T17:21:35.206Z,23.01
2018-04-20T17:24:02.578Z,24.26
2018-04-20T17:26:29.962Z,24.25
2018-04-20T17:28:57.339Z,24.39
2018-04-20T17:31:24.747Z,25.22
2018-04-20T17:33:52.116Z,24.62
2018-04-20T17:36:19.516Z,24.79
2018-04-20T17:38:46.940Z,25.20
2018-04-20T17:41:14.337Z,24.28
2018-04-20T17:43:41.702Z,24.91
2018-04-20T17:46:09.113Z,25.14
2018-04-20T17:48:36.494Z,25.07
2018-04-20T17:51:03.918Z,25.02
2018-04-20T17:53:31.271Z,25.94
2018-04-20T17:55:58.656Z,25.53
2018-04-20T17:58:26.030Z,25.99
2018-04-20T18:00:53.410Z,25.56
2018-04-20T18:03:20.839Z,25.68
2018-04-20T18:05:48.222Z,27.12
2018-04-20T18:08:15.611Z,26.73
2018-04-20T18:10:42.999Z,25.99
2018-04-20T18:13:10.388Z,25.59
2018-04-20T18:15:37.766Z,26.26
2018-04-20T18:18:05.173Z,27.31
2018-04-20T18:20:32.535Z,26.77
2018-04-20T18:22:59.927Z,26.73
2018-04-20T18:25:27.315Z,26.65
2018-04-20T18:27:54.708Z,26.73
2018-04-20T18:30:22.083Z,27.07
2018-04-20T18:32:49.457Z,27.13
2018-04-20T18:35:16.840Z,27.59
2018-04-20T18:37:44.228Z,27.22
2018-04-20T18:40:11.614Z,27.82
2018-04-20T18:42:39.003Z,27.63
2018-04-20T18:45:06.520Z,27.69
2018-04-20T18:47:33.902Z,28.00
2018-04-20T18:50:01.345Z,28.44
2018-04-20T18:52:28.708Z,28.98
2018-04-20T18:54:56.092Z,28.27
2018-04-20T18:57:23.483Z,28.90
2018-04-20T18:59:50.877Z,28.85
2018-04-20T19:02:18.283Z,28.80
2018-04-20T19:04:45.695Z,29.79
2018-04-20T19:07:13.079Z,29.67
2018-04-20T19:09:40.454Z,29.92
2018-04-20T19:12:07.848Z,30.63
2018-04-20T19:14:35.243Z,31.03
2018-04-20T19:17:02.644Z,31.35
2018-04-20T19:19:30.839Z,30.96
2018-04-20T19:21:58.232Z,31.26
2018-04-20T19:24:25.628Z,31.89
2018-04-20T19:26:53.016Z,32.69
2018-04-20T19:29:20.400Z,33.57
2018-04-20T19:31:47.805Z,33.03
2018-04-20T19:34:15.195Z,32.90
2018-04-20T19:36:42.593Z,33.08
2018-04-20T19:39:09.977Z,34.55
2018-04-20T19:41:37.380Z,34.24
2018-04-20T19:44:04.772Z,34.67
2018-04-20T19:46:32.170Z,36.20
2018-04-20T19:48:59.572Z,34.48
2018-04-20T19:51:26.951Z,36.39
2018-04-20T19:53:54.346Z,37.23
2018-04-20T19:56:21.722Z,37.26
2018-04-20T19:58:49.120Z,37.75
2018-04-20T20:01:17.417Z,36.02
2018-04-20T20:03:44.804Z,36.36
2018-04-20T20:06:12.180Z,35.97
2018-04-20T20:08:39.591Z,36.52
2018-04-20T20:11:06.978Z,37.31
2018-04-20T20:13:34.366Z,37.54
2018-04-20T20:16:01.760Z,37.25
2018-04-20T20:18:29.144Z,36.87
2018-04-20T20:20:56.531Z,38.16
2018-04-20T20:23:23.907Z,37.84
2018-04-20T20:25:51.303Z,37.76
2018-04-20T20:28:18.694Z,37.37
2018-04-20T20:30:46.085Z,36.85
2018-04-20T20:33:13.462Z,37.54
2018-04-20T20:35:40.843Z,37.27
2018-04-20T20:38:08.218Z,37.57
2018-04-20T20:40:35.606Z,38.02
2018-04-20T20:43:03.000Z,38.43
2018-04-20T20:45:30.384Z,38.40
2018-04-20T20:47:57.767Z,38.96
2018-04-20T20:50:25.165Z,38.29
2018-04-20T20:52:52.549Z,38.36
2018-04-20T20:55:19.940Z,38.26
2018-04-20T20:57:47.338Z,38.70
2018-04-20T21:00:14.722Z,38.13
2018-04-20T21:02:42.106Z,38.41
2018-04-20T21:05:09.507Z,38.81
2018-04-20T21:07:36.905Z,38.71
2018-04-20T21:10:04.283Z,38.67
2018-04-20T21:12:31.674Z,38.56
2018-04-20T21:14:59.060Z,39.96
2018-04-20T21:17:26.444Z,40.59
2018-04-20T21:19:53.839Z,41.68
2018-04-20T21:22:21.225Z,41.63
2018-04-20T21:24:48.597Z,41.63
2018-04-20T21:27:15.987Z,40.72
2018-04-20T21:29:43.369Z,39.82
2018-04-20T21:32:10.737Z,40.44
2018-04-20T21:34:38.119Z,40.07
2018-04-20T21:37:05.609Z,40.46
2018-04-20T21:39:33.005Z,41.81
2018-04-20T21:42:00.371Z,41.29
2018-04-20T21:44:27.750Z,40.40
2018-04-20T21:46:55.319Z,41.43
2018-04-20T21:49:22.716Z,40.87
2018-04-20T21:51:50.096Z,40.79
2018-04-20T21:54:17.483Z,40.85
2018-04-20T21:56:44.863Z,42.31
2018-04-20T21:59:12.263Z,42.81
2018-04-20T22:01:39.644Z,42.03
2018-04-20T22:04:07.014Z,41.37
2018-04-20T22:06:34.394Z,41.32
2018-04-20T22:09:01.770Z,41.55
2018-04-20T22:11:29.150Z,43.14
2018-04-20T22:13:56.536Z,42.05
2018-04-20T22:16:23.921Z,42.01
2018-04-20T22:18:51.294Z,42.39
2018-04-20T22:21:18.691Z,42.54
2018-04-20T22:23:46.073Z,42.43
2018-04-20T22:26:13.456Z,42.01
2018-04-20T22:28:40.847Z,41.93
2018-04-20T22:31:08.235Z,42.06
2018-04-20T22:33:35.609Z,42.22
2018-04-20T22:36:03.009Z,42.37
2018-04-20T22:38:30.375Z,42.94
2018-04-20T22:40:57.758Z,42.79
2018-04-20T22:43:25.135Z,42.88
2018-04-20T22:45:52.518Z,44.21
2018-04-20T22:48:19.900Z,43.22
2018-04-20T22:50:47.289Z,43.37
2018-04-20T22:53:14.680Z,43.30
2018-04-20T22:55:42.065Z,43.21
2018-04-20T22:58:09.449Z,43.34
2018-04-20T23:00:36.821Z,43.01
2018-04-20T23:03:04.206Z,43.09
2018-04-20T23:05:31.579Z,43.99
2018-04-20T23:07:58.972Z,44.11
2018-04-20T23:10:26.370Z,44.76
2018-04-20T23:12:53.761Z,45.90
2018-04-20T23:15:21.121Z,44.30
2018-04-20T23:17:48.507Z,43.95
2018-04-20T23:20:15.870Z,43.83
2018-04-20T23:22:43.260Z,43.96
2018-04-20T23:25:10.636Z,44.56
2018-04-20T23:27:38.020Z,43.95
2018-04-20T23:30:05.412Z,45.13
2018-04-20T23:32:32.793Z,44.46
2018-04-20T23:35:00.168Z,44.79
2018-04-20T23:37:27.816Z,45.29
2018-04-20T23:39:55.207Z,44.63
2018-04-20T23:42:22.600Z,45.12
2018-04-20T23:44:49.990Z,45.61
2018-04-20T23:47:17.370Z,44.85
2018-04-20T23:49:44.753Z,45.08
2018-04-20T23:52:12.135Z,45.21
2018-04-20T23:54:39.529Z,45.40
2018-04-20T23:57:06.902Z,45.45
2018-04-20T23:59:34.295Z,47.13
